Time;durP1;ratioP1;P1;durP2;ratioP2;P2;SDS_P1;SDS_P2;PMS_P1;PMS_P2;Temp;Humidity;BMP_temperature;BMP_pressure;BME280_temperature;BME280_humidity;BME280_pressure;Samples;Min_cycle;Max_cycle;Signal;HPM_P1;HPM_P2
2022/09/24 00:00:04;;;;;;;12.80;7.90;;;;;;;5.79;82.07;100608.26;85860;1301;88236;-56
2022/09/24 00:02:32;;;;;;;9.80;7.20;;;;;;;5.78;82.01;100605.95;85811;1285;94581;-57
2022/09/24 00:04:43;;;;;;;10.70;7.80;;;;;;;5.83;82.20;100604.81;85834;1294;80953;-55
2022/09/24 00:06:52;;;;;;;11.70;8.00;;;;;;;5.84;82.20;100601.31;85861;1301;83252;-56
2022/09/24 00:09:01;;;;;;;11.10;8.30;;;;;;;5.82;82.05;100602.23;85851;1300;97374;-58
2022/09/24 00:11:11;;;;;;;9.50;7.10;;;;;;;5.74;82.03;100600.34;85830;1285;88737;-57
2022/09/24 00:13:20;;;;;;;11.60;7.70;;;;;;;5.68;82.04;100606.14;85844;1300;94712;-57
2022/09/24 00:15:30;;;;;;;9.70;7.80;;;;;;;5.64;82.10;100604.02;85843;1301;82254;-56
2022/09/24 00:17:38;;;;;;;11.80;7.60;;;;;;;5.61;82.07;100603.23;85846;1293;80876;-58
2022/09/24 00:19:47;;;;;;;9.90;7.20;;;;;;;5.62;82.06;100608.86;85844;1295;98884;-57
2022/09/24 00:21:56;;;;;;;11.50;6.90;;;;;;;5.62;82.17;100600.27;85830;1295;88397;-54
2022/09/24 00:24:10;;;;;;;15.50;9.40;;;;;;;5.63;82.31;100601.13;85836;1293;94411;-57
2022/09/24 00:28:45;;;;;;;11.20;7.70;;;;;;;5.51;82.31;100600.74;85889;1301;83202;-56
2022/09/24 00:30:56;;;;;;;10.30;7.90;;;;;;;5.50;82.19;100601.38;85855;1287;99041;-57
2022/09/24 00:33:04;;;;;;;9.90;8.70;;;;;;;5.47;82.14;100595.25;85826;1301;89237;-48
2022/09/24 00:35:13;;;;;;;13.00;8.10;;;;;;;5.37;82.20;100592.74;85751;1301;94200;-58
2022/09/24 00:37:22;;;;;;;11.10;7.30;;;;;;;5.35;82.22;100589.55;85805;1277;80709;-57
2022/09/24 00:39:31;;;;;;;10.60;8.00;;;;;;;5.35;82.26;100590.85;85860;1294;82989;-53
2022/09/24 00:41:45;;;;;;;12.20;7.70;;;;;;;5.36;82.07;100589.68;85895;1300;99821;-50
2022/09/24 00:43:54;;;;;;;10.50;8.00;;;;;;;5.38;82.33;100589.55;85918;1294;87212;-57
2022/09/24 00:46:14;;;;;;;13.30;8.70;;;;;;;5.31;82.36;100588.77;85878;1294;95678;-57
2022/09/24 00:48:23;;;;;;;11.00;8.10;;;;;;;5.22;82.34;100591.42;85779;1287;79198;-57
2022/09/24 00:50:35;;;;;;;10.60;7.00;;;;;;;5.22;82.26;100589.63;85852;1301;81848;-54
2022/09/24 00:52:48;;;;;;;10.70;8.50;;;;;;;5.23;82.40;100584.71;85862;1300;99846;-54
2022/09/24 00:54:57;;;;;;;10.10;7.30;;;;;;;5.21;82.35;100579.56;85864;1293;88225;-57
2022/09/24 00:57:07;;;;;;;9.90;6.90;;;;;;;5.18;82.46;100581.48;85812;1294;96092;-57
2022/09/24 00:59:21;;;;;;;12.30;7.20;;;;;;;5.14;82.38;100583.44;85820;1301;81107;-54
2022/09/24 01:01:31;;;;;;;11.70;7.70;;;;;;;5.17;82.46;100582.87;85805;1294;82500;-55
2022/09/24 01:03:42;;;;;;;10.30;8.20;;;;;;;5.20;82.58;100580.56;85839;1285;98158;-57
2022/09/24 01:05:54;;;;;;;10.00;8.20;;;;;;;5.19;82.59;100577.23;85877;1278;88888;-58
2022/09/24 01:08:06;;;;;;;10.20;7.90;;;;;;;5.16;82.51;100574.70;85830;1284;95542;-57
2022/09/24 01:10:46;;;;;;;13.50;8.10;;;;;;;5.14;82.66;100572.95;85856;1285;78538;-56
2022/09/24 01:12:57;;;;;;;10.30;7.90;;;;;;;5.08;82.66;100571.77;85847;1298;82988;-52
2022/09/24 01:15:23;;;;;;;11.20;8.10;;;;;;;5.04;82.72;100570.55;85892;1295;99171;-56
2022/09/24 01:17:38;;;;;;;13.20;8.30;;;;;;;5.05;82.61;100572.56;85867;1300;88865;-57
2022/09/24 01:20:11;;;;;;;13.90;8.10;;;;;;;5.02;82.83;100570.58;85828;1285;95595;-56
2022/09/24 01:22:34;;;;;;;11.60;8.60;;;;;;;4.98;82.80;100566.55;85828;1300;82024;-55
2022/09/24 01:25:00;;;;;;;12.50;8.30;;;;;;;5.00;82.66;100566.86;85870;1301;82942;-56
2022/09/24 01:27:16;;;;;;;10.40;8.60;;;;;;;4.96;82.91;100567.57;85816;1299;97334;-53
2022/09/24 01:29:40;;;;;;;10.70;8.70;;;;;;;4.91;83.02;100566.33;85812;1294;87424;-58
2022/09/24 01:32:01;;;;;;;12.30;7.90;;;;;;;4.89;82.85;100564.40;85737;1297;93440;-58
2022/09/24 01:34:14;;;;;;;12.00;7.70;;;;;;;4.89;82.83;100560.96;85866;1285;80124;-57
2022/09/24 01:36:26;;;;;;;11.70;8.40;;;;;;;4.92;82.79;100563.39;85856;1277;80398;-57
2022/09/24 01:38:43;;;;;;;9.90;8.10;;;;;;;4.85;83.04;100559.06;85855;1301;97086;-57
2022/09/24 01:40:56;;;;;;;12.10;9.10;;;;;;;4.85;82.89;100559.25;85868;1294;87429;-55
2022/09/24 01:43:07;;;;;;;11.40;7.80;;;;;;;4.83;82.88;100554.97;85845;1294;94426;-57
2022/09/24 01:45:21;;;;;;;10.10;7.60;;;;;;;4.84;82.95;100555.23;85826;1294;80769;-57
2022/09/24 01:47:41;;;;;;;10.50;9.30;;;;;;;4.83;82.82;100555.66;85794;1297;81638;-58
2022/09/24 01:49:53;;;;;;;10.10;7.80;;;;;;;4.74;82.96;100555.98;85822;1294;98052;-56
2022/09/24 01:52:13;;;;;;;11.50;8.30;;;;;;;4.70;82.89;100556.18;85864;1293;87524;-46
2022/09/24 01:54:27;;;;;;;13.00;9.40;;;;;;;4.68;82.96;100554.33;85819;1281;95760;-57
2022/09/24 01:56:42;;;;;;;13.00;9.10;;;;;;;4.61;83.10;100554.58;85823;1300;81175;-57
2022/09/24 01:58:59;;;;;;;12.90;8.80;;;;;;;4.56;83.04;100550.27;85835;1293;83237;-57
2022/09/24 02:01:15;;;;;;;10.40;8.00;;;;;;;4.52;83.05;100554.39;85883;1300;97738;-54
2022/09/24 02:03:29;;;;;;;13.10;9.30;;;;;;;4.47;83.13;100553.69;85853;1293;88878;-52
2022/09/24 02:05:44;;;;;;;13.50;8.70;;;;;;;4.42;83.19;100555.02;85843;1301;95301;-55
2022/09/24 02:08:03;;;;;;;13.30;8.80;;;;;;;4.39;83.07;100555.66;85584;1301;332200;-56
2022/09/24 02:10:20;;;;;;;13.20;9.20;;;;;;;4.33;83.07;100554.09;85877;1284;83247;-58
2022/09/24 02:12:34;;;;;;;13.90;8.40;;;;;;;4.30;83.11;100554.65;85845;1300;99546;-56
2022/09/24 02:14:49;;;;;;;16.60;9.70;;;;;;;4.28;82.95;100555.15;85867;1295;87018;-53
2022/09/24 02:16:59;;;;;;;12.00;8.70;;;;;;;4.23;83.23;100557.37;85827;1277;96338;-53
2022/09/24 02:19:14;;;;;;;13.60;9.10;;;;;;;4.15;83.23;100554.21;85828;1293;81997;-56
2022/09/24 02:21:24;;;;;;;13.50;8.60;;;;;;;4.16;83.22;100553.07;85870;1300;82561;-57
2022/09/24 02:23:35;;;;;;;12.20;8.70;;;;;;;4.20;83.30;100555.23;85837;1285;98250;-55
2022/09/24 02:25:52;;;;;;;13.90;8.90;;;;;;;4.21;83.22;100557.30;85878;1300;87948;-55
2022/09/24 02:28:02;;;;;;;12.90;8.80;;;;;;;4.15;83.30;100556.58;85816;1293;92965;-54
2022/09/24 02:30:13;;;;;;;14.20;10.00;;;;;;;4.12;83.20;100555.86;85841;1278;82592;-56
2022/09/24 02:32:26;;;;;;;11.40;8.40;;;;;;;4.11;83.18;100559.37;85838;1293;81636;-55
2022/09/24 02:34:39;;;;;;;13.30;9.70;;;;;;;4.09;83.24;100560.67;85819;1293;97462;-50
2022/09/24 02:36:49;;;;;;;12.80;8.40;;;;;;;4.05;83.12;100561.71;85870;1294;89299;-48
2022/09/24 02:38:58;;;;;;;14.50;9.40;;;;;;;4.02;83.22;100561.14;85827;1284;95365;-54
2022/09/24 02:41:08;;;;;;;15.60;9.60;;;;;;;3.99;83.11;100561.27;85831;1293;79733;-57
2022/09/24 02:43:16;;;;;;;14.20;10.30;;;;;;;3.99;83.32;100562.16;85812;1296;82395;-57
2022/09/24 02:45:25;;;;;;;13.80;10.10;;;;;;;3.96;83.40;100563.36;85863;1300;99384;-57
2022/09/24 02:47:34;;;;;;;14.90;10.40;;;;;;;3.93;83.48;100564.19;85837;1300;87110;-55
2022/09/24 02:49:43;;;;;;;17.10;11.20;;;;;;;3.87;83.38;100559.95;85829;1285;95546;-58
2022/09/24 02:51:51;;;;;;;16.50;10.10;;;;;;;3.80;83.24;100555.05;85827;1295;79288;-56
2022/09/24 02:54:01;;;;;;;17.40;10.40;;;;;;;3.77;83.34;100549.09;85788;1294;83181;-54
2022/09/24 02:56:12;;;;;;;17.50;11.90;;;;;;;3.77;83.40;100547.70;85853;1293;96597;-50
2022/09/24 02:58:20;;;;;;;17.80;11.70;;;;;;;3.74;83.43;100546.21;85841;1298;88421;-56
2022/09/24 03:00:29;;;;;;;17.30;12.20;;;;;;;3.70;83.50;100545.13;85835;1300;95549;-57
2022/09/24 03:02:38;;;;;;;16.40;12.10;;;;;;;3.66;83.51;100545.48;85848;1294;81113;-56
2022/09/24 03:04:47;;;;;;;17.20;12.80;;;;;;;3.64;83.65;100548.77;85856;1284;82106;-56
2022/09/24 03:06:56;;;;;;;15.50;12.70;;;;;;;3.60;83.74;100547.88;85828;1285;98852;-56
2022/09/24 03:09:05;;;;;;;19.00;13.30;;;;;;;3.59;83.78;100546.90;85850;1300;88628;-55
2022/09/24 03:11:15;;;;;;;18.00;13.00;;;;;;;3.58;83.68;100548.72;85822;1284;94326;-53
2022/09/24 03:13:26;;;;;;;19.90;13.90;;;;;;;3.61;83.75;100548.66;85756;1304;83154;-56
2022/09/24 03:15:34;;;;;;;16.90;12.30;;;;;;;3.64;83.85;100546.58;85827;1291;83509;-56
2022/09/24 03:17:43;;;;;;;21.00;13.90;;;;;;;3.65;83.94;100543.85;85869;1293;97268;-56
2022/09/24 03:19:52;;;;;;;18.50;13.30;;;;;;;3.61;83.81;100542.27;85794;1293;88251;-56
2022/09/24 03:22:00;;;;;;;20.10;13.10;;;;;;;3.58;83.80;100540.52;85702;1296;95028;-56
2022/09/24 03:24:09;;;;;;;17.90;13.20;;;;;;;3.60;83.83;100540.42;85806;1293;78083;-56
2022/09/24 03:26:18;;;;;;;19.40;13.80;;;;;;;3.62;83.84;100537.52;85829;1294;81353;-57
2022/09/24 03:28:28;;;;;;;18.50;13.50;;;;;;;3.65;83.81;100538.35;85822;1300;99019;-55
2022/09/24 03:33:03;;;;;;;19.90;13.20;;;;;;;3.63;83.92;100532.83;85835;1294;95459;-55
2022/09/24 03:35:14;;;;;;;16.10;13.00;;;;;;;3.61;83.88;100535.98;85810;1300;82602;-57
2022/09/24 03:37:22;;;;;;;19.00;14.00;;;;;;;3.63;84.03;100531.02;85845;1293;81708;-57
2022/09/24 03:39:31;;;;;;;19.30;13.10;;;;;;;3.65;84.00;100534.07;85831;1300;99377;-56
2022/09/24 03:41:40;;;;;;;20.60;12.50;;;;;;;3.62;83.94;100533.79;85846;1300;87904;-51
2022/09/24 03:43:49;;;;;;;20.80;14.40;;;;;;;3.56;83.87;100532.87;85863;1278;94958;-58
2022/09/24 03:45:58;;;;;;;17.80;13.50;;;;;;;3.51;83.84;100536.02;85826;1295;80153;-56
2022/09/24 03:48:09;;;;;;;16.70;14.00;;;;;;;3.43;83.80;100534.48;85846;1301;83421;-51
2022/09/24 03:50:18;;;;;;;20.10;13.50;;;;;;;3.38;83.92;100534.06;85831;1293;97199;-53
2022/09/24 03:52:27;;;;;;;20.50;14.00;;;;;;;3.35;83.72;100532.55;85707;1288;88009;-58
2022/09/24 03:54:36;;;;;;;16.90;13.30;;;;;;;3.33;83.81;100536.12;85866;1301;94744;-56
2022/09/24 03:56:45;;;;;;;18.50;13.30;;;;;;;3.31;83.91;100537.93;85880;1284;80034;-54
2022/09/24 03:58:54;;;;;;;18.30;14.10;;;;;;;3.26;83.78;100540.27;85831;1300;82681;-56
2022/09/24 04:01:03;;;;;;;19.80;14.10;;;;;;;3.24;83.91;100540.38;85853;1286;99199;-56
2022/09/24 04:03:12;;;;;;;22.00;13.40;;;;;;;3.26;84.12;100543.90;85843;1284;89674;-57
2022/09/24 04:05:20;;;;;;;18.00;14.10;;;;;;;3.31;84.28;100543.29;85850;1300;94756;-56
2022/09/24 04:07:29;;;;;;;15.40;12.90;;;;;;;3.32;84.16;100544.05;85851;1295;81336;-57
2022/09/24 04:09:38;;;;;;;19.90;12.90;;;;;;;3.34;84.19;100540.83;85834;1285;80641;-56
2022/09/24 04:11:47;;;;;;;17.80;14.20;;;;;;;3.34;84.09;100542.30;85714;1290;100881;-56
2022/09/24 04:13:58;;;;;;;20.80;13.60;;;;;;;3.34;84.27;100546.38;85847;1286;87433;-54
2022/09/24 04:16:10;;;;;;;20.10;13.90;;;;;;;3.33;84.36;100548.06;85853;1300;94873;-54
2022/09/24 04:18:19;;;;;;;19.10;13.70;;;;;;;3.32;84.51;100549.08;85858;1294;81549;-52
2022/09/24 04:20:30;;;;;;;19.30;14.60;;;;;;;3.30;84.60;100548.52;85868;1294;82862;-56
2022/09/24 04:22:38;;;;;;;20.00;15.10;;;;;;;3.30;84.51;100542.96;85807;1285;98106;-55
2022/09/24 04:24:47;;;;;;;19.80;13.90;;;;;;;3.31;84.49;100540.25;85859;1291;89121;-56
2022/09/24 04:26:55;;;;;;;20.30;14.20;;;;;;;3.32;84.46;100541.04;85815;1300;94340;-58
2022/09/24 04:29:05;;;;;;;17.90;14.30;;;;;;;3.34;84.48;100541.41;85819;1301;80311;-51
2022/09/24 04:31:13;;;;;;;20.40;14.80;;;;;;;3.37;84.44;100541.27;85836;1293;83263;-48
2022/09/24 04:33:22;;;;;;;20.70;14.80;;;;;;;3.38;84.59;100538.16;85806;1285;99175;-56
2022/09/24 04:35:34;;;;;;;22.60;15.70;;;;;;;3.37;84.51;100540.67;85843;1300;89084;-57
2022/09/24 04:37:43;;;;;;;22.20;15.90;;;;;;;3.39;84.51;100541.80;85857;1285;93458;-56
2022/09/24 04:39:51;;;;;;;21.60;14.40;;;;;;;3.46;84.75;100540.09;85825;1293;79366;-54
2022/09/24 04:42:00;;;;;;;22.10;15.50;;;;;;;3.48;84.71;100542.23;85835;1284;82978;-54
2022/09/24 04:44:10;;;;;;;20.60;14.50;;;;;;;3.51;84.85;100541.42;85829;1288;98731;-56
2022/09/24 04:46:19;;;;;;;20.80;15.90;;;;;;;3.57;84.87;100541.76;85817;1285;87148;-56
2022/09/24 04:48:28;;;;;;;20.00;14.00;;;;;;;3.60;84.90;100537.66;85820;1294;95402;-56
2022/09/24 04:50:37;;;;;;;20.40;16.10;;;;;;;3.67;84.95;100541.48;85780;1297;82500;-48
2022/09/24 04:52:45;;;;;;;22.60;15.60;;;;;;;3.71;85.13;100541.63;85855;1300;80662;-55
2022/09/24 04:54:55;;;;;;;17.90;14.40;;;;;;;3.79;85.03;100544.79;85840;1285;97973;-57
2022/09/24 04:57:04;;;;;;;23.00;16.20;;;;;;;3.88;85.35;100546.13;85828;1301;89001;-51
2022/09/24 04:59:12;;;;;;;21.10;15.80;;;;;;;3.96;85.30;100548.05;85842;1293;94846;-58
2022/09/24 05:01:22;;;;;;;20.60;15.00;;;;;;;4.03;85.46;100547.53;85838;1285;80947;-55
2022/09/24 05:03:32;;;;;;;24.80;16.50;;;;;;;4.15;85.42;100545.64;85872;1294;83119;-56
2022/09/24 05:05:40;;;;;;;23.90;15.80;;;;;;;4.28;85.34;100545.73;85820;1293;97259;-56
2022/09/24 05:07:50;;;;;;;24.20;16.30;;;;;;;4.36;85.24;100544.36;85840;1301;87383;-58
2022/09/24 05:09:58;;;;;;;20.50;15.20;;;;;;;4.45;85.42;100541.34;85780;1300;95579;-56
2022/09/24 05:12:08;;;;;;;20.30;15.90;;;;;;;4.54;85.38;100538.48;85843;1301;81801;-50
2022/09/24 05:14:17;;;;;;;18.10;15.30;;;;;;;4.68;85.51;100534.34;85829;1294;81768;-55
2022/09/24 05:16:25;;;;;;;23.30;16.80;;;;;;;4.78;85.42;100532.94;85830;1300;97111;-56
2022/09/24 05:18:34;;;;;;;23.70;17.40;;;;;;;4.90;85.55;100534.77;85845;1295;89052;-54
2022/09/24 05:20:43;;;;;;;23.70;17.70;;;;;;;5.03;85.40;100536.56;85779;1284;95420;-55
2022/09/24 05:22:52;;;;;;;21.90;17.60;;;;;;;5.19;85.41;100538.73;85813;1300;79566;-56
2022/09/24 05:25:01;;;;;;;22.00;16.90;;;;;;;5.30;85.47;100541.36;85826;1301;81840;-56
2022/09/24 05:27:10;;;;;;;19.70;15.50;;;;;;;5.46;85.31;100542.77;85841;1300;97761;-54
2022/09/24 05:29:20;;;;;;;23.00;17.90;;;;;;;5.63;85.41;100540.58;85858;1301;88640;-54
2022/09/24 05:31:29;;;;;;;26.50;19.00;;;;;;;5.82;85.43;100539.45;85863;1294;95103;-58
2022/09/24 05:33:38;;;;;;;24.40;19.00;;;;;;;6.03;85.16;100542.33;85836;1300;81843;-57
2022/09/24 05:35:52;;;;;;;23.80;18.50;;;;;;;6.21;85.17;100535.61;85843;1294;81756;-57
2022/09/24 05:38:01;;;;;;;24.30;18.70;;;;;;;6.47;85.40;100535.04;85844;1293;97547;-53
2022/09/24 05:42:38;;;;;;;20.00;16.80;;;;;;;7.29;84.97;100528.77;85843;1301;94112;-58
2022/09/24 05:44:47;;;;;;;22.50;17.30;;;;;;;7.38;84.55;100528.58;85833;1289;79780;-56
2022/09/24 05:46:55;;;;;;;23.90;18.20;;;;;;;7.46;84.58;100531.07;85834;1294;83365;-57
2022/09/24 05:49:04;;;;;;;26.30;19.00;;;;;;;7.85;84.62;100529.44;85823;1285;97501;-57
2022/09/24 05:51:15;;;;;;;23.40;17.20;;;;;;;8.64;84.18;100526.23;85851;1300;88599;-58
2022/09/24 05:53:24;;;;;;;20.80;16.40;;;;;;;9.16;83.71;100526.13;85805;1302;93338;-57
2022/09/24 05:55:33;;;;;;;21.30;17.40;;;;;;;9.76;83.55;100525.54;85823;1303;79833;-57
2022/09/24 05:57:43;;;;;;;20.60;17.70;;;;;;;10.68;83.11;100520.75;85795;1302;82946;-57
2022/09/24 05:59:52;;;;;;;23.00;18.50;;;;;;;10.89;82.20;100522.41;85808;1300;98861;-51
2022/09/24 06:02:01;;;;;;;22.20;18.00;;;;;;;10.70;81.99;100528.73;85836;1300;87712;-56
2022/09/24 06:04:11;;;;;;;20.80;17.40;;;;;;;10.46;82.13;100533.70;85813;1302;95731;-55
2022/09/24 06:06:20;;;;;;;19.80;17.60;;;;;;;10.27;82.43;100535.48;85813;1293;79255;-57
2022/09/24 06:08:30;;;;;;;21.20;17.70;;;;;;;10.19;82.43;100535.19;85806;1301;82910;-57
2022/09/24 06:10:39;;;;;;;22.30;18.20;;;;;;;10.14;82.23;100541.13;85836;1302;98366;-56
2022/09/24 06:12:49;;;;;;;20.30;16.30;;;;;;;10.12;81.98;100540.98;85791;1293;88352;-51
2022/09/24 06:14:58;;;;;;;20.90;16.50;;;;;;;10.07;81.96;100538.04;85789;1302;94152;-56
2022/09/24 06:17:06;;;;;;;19.90;16.40;;;;;;;10.07;81.84;100537.54;85802;1294;80820;-57
2022/09/24 06:19:15;;;;;;;19.00;15.50;;;;;;;10.11;81.49;100537.55;85861;1300;83036;-54
2022/09/24 06:21:24;;;;;;;17.70;15.80;;;;;;;10.10;81.44;100542.30;85845;1299;98750;-54
2022/09/24 06:23:33;;;;;;;19.00;16.10;;;;;;;10.12;81.41;100538.70;85825;1284;89251;-57
2022/09/24 06:25:42;;;;;;;21.60;16.50;;;;;;;10.17;81.34;100540.27;85694;1301;95075;-56
2022/09/24 06:28:02;;;;;;;19.70;16.60;;;;;;;10.24;81.36;100537.98;85706;1295;80806;-56
2022/09/24 06:30:14;;;;;;;22.20;17.70;;;;;;;10.40;81.24;100537.13;85871;1300;81768;-60
2022/09/24 06:32:24;;;;;;;19.20;17.10;;;;;;;10.53;81.12;100538.23;85832;1295;97186;-55
2022/09/24 06:34:33;;;;;;;20.40;17.00;;;;;;;10.68;80.89;100535.39;85830;1284;89026;-58
2022/09/24 06:36:42;;;;;;;19.90;17.80;;;;;;;10.80;80.67;100532.14;85838;1299;95466;-57
2022/09/24 06:38:54;;;;;;;19.40;17.20;;;;;;;10.90;80.58;100536.31;85851;1299;81238;-56
2022/09/24 06:41:05;;;;;;;20.40;17.70;;;;;;;11.00;80.41;100534.46;85840;1291;80569;-55
2022/09/24 06:43:16;;;;;;;21.20;16.20;;;;;;;11.08;80.35;100537.42;85850;1295;98190;-56
2022/09/24 06:45:27;;;;;;;19.00;16.90;;;;;;;11.15;80.58;100535.91;85853;1301;88644;-58
2022/09/24 06:47:36;;;;;;;19.00;15.50;;;;;;;11.23;80.31;100538.64;85857;1300;96064;-57
2022/09/24 06:49:45;;;;;;;16.90;15.10;;;;;;;11.32;80.29;100538.16;85856;1291;82294;-55
2022/09/24 06:51:57;;;;;;;17.10;14.10;;;;;;;11.42;80.03;100541.96;85806;1300;82061;-59
2022/09/24 06:54:06;;;;;;;17.10;15.30;;;;;;;11.49;79.84;100543.02;85840;1295;98775;-57
2022/09/24 06:56:15;;;;;;;19.80;16.90;;;;;;;11.58;79.63;100546.70;85881;1292;89202;-56
2022/09/24 06:58:25;;;;;;;18.70;16.60;;;;;;;11.57;79.55;100546.33;85870;1299;95136;-55
2022/09/24 07:00:35;;;;;;;21.00;16.50;;;;;;;11.46;79.53;100544.68;85858;1301;79156;-56
2022/09/24 07:02:51;;;;;;;18.10;16.00;;;;;;;11.56;79.17;100544.02;85830;1284;80974;-58
2022/09/24 07:05:15;;;;;;;17.40;15.20;;;;;;;11.66;78.89;100548.06;85870;1295;99637;-57
2022/09/24 07:07:32;;;;;;;18.20;14.20;;;;;;;11.66;78.61;100546.95;85841;1302;88954;-57
2022/09/24 07:09:43;;;;;;;16.60;14.90;;;;;;;11.82;78.50;100548.25;85826;1300;94105;-55
2022/09/24 07:11:53;;;;;;;19.30;15.00;;;;;;;11.95;78.29;100551.45;85844;1302;80204;-56
2022/09/24 07:14:03;;;;;;;18.50;15.50;;;;;;;12.07;78.09;100553.77;85850;1300;82496;-55
2022/09/24 07:16:12;;;;;;;25.50;15.20;;;;;;;12.21;77.66;100554.59;85882;1300;100169;-58
2022/09/24 07:18:24;;;;;;;22.10;15.10;;;;;;;12.23;77.69;100559.48;85841;1300;87462;-55
2022/09/24 07:20:35;;;;;;;25.20;15.70;;;;;;;12.43;77.58;100558.34;85823;1300;92498;-56
2022/09/24 07:22:45;;;;;;;20.60;14.30;;;;;;;12.60;77.41;100558.11;85772;1300;78095;-55
2022/09/24 07:24:54;;;;;;;23.10;14.80;;;;;;;12.73;76.98;100557.92;85729;1303;82976;-57
2022/09/24 07:27:03;;;;;;;25.50;14.60;;;;;;;12.86;76.91;100557.17;85797;1300;100390;-57
2022/09/24 07:29:12;;;;;;;19.30;12.70;;;;;;;13.06;76.86;100556.23;85830;1300;89060;-57
2022/09/24 07:31:25;;;;;;;24.40;12.80;;;;;;;13.54;77.11;100558.86;85807;1300;93147;-55
2022/09/24 07:33:35;;;;;;;22.20;11.60;;;;;;;14.49;76.15;100559.77;85840;1295;81312;-58
2022/09/24 07:35:44;;;;;;;27.10;11.60;;;;;;;15.21;74.81;100554.32;85833;1284;80711;-57
2022/09/24 07:38:01;;;;;;;28.60;11.50;;;;;;;15.69;74.14;100554.23;85834;1300;99303;-56
2022/09/24 07:40:12;;;;;;;25.40;11.60;;;;;;;16.46;73.49;100555.89;85866;1300;89737;-56
2022/09/24 07:42:24;;;;;;;39.70;12.70;;;;;;;17.22;72.33;100559.34;85853;1300;92427;-57
2022/09/24 07:44:36;;;;;;;20.70;8.00;;;;;;;17.46;71.02;100555.96;85841;1301;80558;-57
2022/09/24 07:46:48;;;;;;;30.60;10.70;;;;;;;18.32;70.58;100558.86;85880;1300;80561;-58
2022/09/24 07:48:57;;;;;;;38.20;10.20;;;;;;;19.02;69.04;100555.02;85839;1300;100340;-56
2022/09/24 07:51:11;;;;;;;40.60;11.40;;;;;;;19.14;68.15;100551.39;85869;1284;87013;-59
2022/09/24 07:53:20;;;;;;;40.20;10.50;;;;;;;18.84;67.75;100554.05;85848;1300;94274;-57
2022/09/24 07:55:30;;;;;;;49.00;11.80;;;;;;;18.53;67.41;100557.55;85823;1302;79373;-58
2022/09/24 07:57:39;;;;;;;43.20;10.00;;;;;;;18.23;66.60;100556.35;85895;1302;83254;-59
2022/09/24 07:59:52;;;;;;;39.90;12.20;;;;;;;18.19;66.45;100554.66;85841;1300;99162;-57
2022/09/24 08:02:00;;;;;;;42.40;12.30;;;;;;;18.42;66.33;100554.99;85839;1300;88853;-57
2022/09/24 08:04:10;;;;;;;31.10;10.10;;;;;;;18.62;65.80;100554.54;85864;1300;93418;-56
2022/09/24 08:06:20;;;;;;;41.90;11.40;;;;;;;18.76;65.06;100551.57;85873;1300;81114;-56
2022/09/24 08:08:31;;;;;;;49.50;10.70;;;;;;;18.66;64.59;100553.42;85852;1300;82433;-56
2022/09/24 08:10:40;;;;;;;45.40;10.90;;;;;;;18.49;64.12;100553.40;85860;1300;98551;-54
2022/09/24 08:12:49;;;;;;;45.30;10.50;;;;;;;18.40;63.95;100554.73;85858;1301;87769;-58
2022/09/24 08:15:00;;;;;;;41.60;9.80;;;;;;;18.29;63.71;100558.90;85835;1286;94201;-58
2022/09/24 08:17:08;;;;;;;41.70;11.20;;;;;;;18.32;63.28;100558.52;85787;1285;81008;-58
2022/09/24 08:19:17;;;;;;;42.00;10.10;;;;;;;18.30;63.05;100558.05;85737;1295;81838;-56
2022/09/24 08:21:27;;;;;;;32.50;9.40;;;;;;;18.49;62.84;100556.23;85810;1298;99238;-61
2022/09/24 08:23:39;;;;;;;30.80;8.20;;;;;;;18.74;62.28;100552.24;85845;1302;87662;-59
2022/09/24 08:25:50;;;;;;;32.10;8.40;;;;;;;18.96;61.30;100550.40;85839;1301;95171;-61
2022/09/24 08:28:03;;;;;;;39.10;8.00;;;;;;;19.25;61.16;100548.30;85823;1301;79837;-62
2022/09/24 08:30:16;;;;;;;23.30;7.10;;;;;;;19.71;61.14;100543.96;85844;1299;82968;-63
2022/09/24 08:32:29;;;;;;;16.40;5.30;;;;;;;19.82;60.45;100543.86;85788;1299;99586;-63
2022/09/24 08:34:39;;;;;;;18.00;5.60;;;;;;;20.29;59.54;100544.04;85837;1295;87698;-63
2022/09/24 08:36:49;;;;;;;15.10;5.70;;;;;;;20.95;59.11;100538.30;85820;1288;94465;-58
2022/09/24 08:38:58;;;;;;;20.60;6.00;;;;;;;21.52;58.66;100537.23;85851;1300;78245;-61
2022/09/24 08:41:39;;;;;;;23.10;6.90;;;;;;;21.96;57.95;100536.58;85866;1294;82839;-61
2022/09/24 08:44:00;;;;;;;15.80;5.50;;;;;;;22.49;57.01;100542.53;85831;1294;98481;-61
2022/09/24 08:48:48;;;;;;;6.20;3.50;;;;;;;22.80;54.82;100541.73;85611;1292;94980;-64
2022/09/24 08:51:01;;;;;;;8.10;3.50;;;;;;;22.66;53.47;100544.27;85839;1300;80537;-64
2022/09/24 08:53:16;;;;;;;;;;;;;;;22.44;53.51;100542.01;85868;1300;82679;-64
2022/09/24 08:55:35;;;;;;;9.90;3.80;;;;;;;22.57;53.85;100541.83;85818;1283;99749;-65
2022/09/24 08:58:04;;;;;;;5.40;3.20;;;;;;;22.88;52.34;100541.28;85869;1300;88618;-57
2022/09/24 09:00:18;;;;;;;7.50;4.10;;;;;;;23.19;51.25;100539.36;85827;1300;94464;-57
2022/09/24 09:02:44;;;;;;;5.80;3.40;;;;;;;23.15;50.85;100539.16;85849;1299;81797;-63
2022/09/24 09:05:08;;;;;;;4.60;3.10;;;;;;;23.26;50.38;100538.33;85845;1285;83441;-61
2022/09/24 09:07:23;;;;;;;4.30;3.30;;;;;;;23.29;49.52;100536.48;85832;1296;98558;-66
2022/09/24 09:09:45;;;;;;;3.10;2.10;;;;;;;23.28;49.21;100534.83;85847;1284;88578;-66
2022/09/24 09:12:04;;;;;;;4.20;2.30;;;;;;;23.39;48.79;100533.89;85868;1294;93721;-65
2022/09/24 09:14:18;;;;;;;3.10;2.70;;;;;;;23.45;48.90;100528.80;85829;1290;80208;-65
2022/09/24 09:16:34;;;;;;;4.30;2.80;;;;;;;23.69;49.29;100526.38;85826;1278;81976;-65
2022/09/24 09:18:47;;;;;;;2.70;2.20;;;;;;;24.05;48.68;100528.54;85845;1284;100928;-68
2022/09/24 09:20:56;;;;;;;;;;;;;;;24.10;47.89;100528.89;85887;1300;88124;-65
2022/09/24 09:23:16;;;;;;;3.60;2.20;;;;;;;23.84;47.71;100528.34;85803;1278;94854;-66
2022/09/24 09:25:36;;;;;;;2.50;1.90;;;;;;;23.73;47.31;100530.31;85876;1294;80935;-67
2022/09/24 09:27:44;;;;;;;2.10;1.90;;;;;;;23.69;46.81;100528.86;85846;1285;83152;-65
2022/09/24 09:30:07;;;;;;;3.10;2.10;;;;;;;24.17;46.42;100527.25;85804;1284;100137;-64
2022/09/24 09:32:31;;;;;;;3.00;1.90;;;;;;;24.31;45.84;100524.71;85823;1285;88512;-64
2022/09/24 09:35:04;;;;;;;3.10;2.00;;;;;;;24.49;44.46;100522.82;85835;1295;93496;-64
2022/09/24 09:37:28;;;;;;;2.40;1.90;;;;;;;24.46;43.27;100521.05;85793;1278;81528;-63
2022/09/24 09:39:50;;;;;;;2.70;1.80;;;;;;;24.08;43.47;100520.94;85839;1292;82591;-65
2022/09/24 09:42:15;;;;;;;2.30;2.00;;;;;;;23.70;44.14;100521.02;85835;1294;99104;-63
2022/09/24 09:44:29;;;;;;;2.30;1.90;;;;;;;22.46;44.38;100521.97;85847;1295;88957;-65
2022/09/24 09:46:40;;;;;;;;;;;;;;;22.09;44.33;100522.83;85857;1300;95425;-64
2022/09/24 09:48:54;;;;;;;1.80;1.40;;;;;;;21.69;44.37;100522.85;85830;1295;79922;-63
2022/09/24 09:51:07;;;;;;;2.40;1.90;;;;;;;21.46;44.50;100524.23;85873;1301;83607;-62
2022/09/24 09:53:25;;;;;;;2.20;1.90;;;;;;;21.16;45.02;100525.30;85844;1285;100255;-64
2022/09/24 09:55:37;;;;;;;3.10;1.80;;;;;;;20.64;44.98;100524.23;85859;1284;89281;-63
2022/09/24 09:57:47;;;;;;;2.40;1.80;;;;;;;20.38;45.43;100527.07;85823;1302;94207;-64
2022/09/24 09:59:57;;;;;;;3.90;2.20;;;;;;;20.24;45.18;100530.56;85873;1292;79510;-63
2022/09/24 10:02:16;;;;;;;3.00;2.00;;;;;;;20.00;44.97;100526.90;85840;1295;83269;-63
2022/09/24 10:04:52;;;;;;;2.10;1.80;;;;;;;20.02;45.28;100523.92;85856;1298;99390;-64
2022/09/24 10:07:20;;;;;;;2.40;2.00;;;;;;;19.99;45.68;100526.11;85534;1300;380183;-63
2022/09/24 10:09:30;;;;;;;3.00;2.20;;;;;;;19.99;45.42;100523.75;85789;1293;94563;-63
2022/09/24 10:11:39;;;;;;;3.80;2.30;;;;;;;19.61;45.90;100521.91;85802;1296;79103;-65
2022/09/24 10:14:01;;;;;;;3.20;2.00;;;;;;;19.32;46.19;100517.15;85796;1298;82838;-66
2022/09/24 10:16:15;;;;;;;2.80;2.10;;;;;;;18.96;46.28;100518.73;85851;1302;100193;-64
2022/09/24 10:18:32;;;;;;;2.40;2.10;;;;;;;18.91;46.18;100524.54;85820;1300;89546;-63